sensor_id;sensor_type;location;lat;lon;timestamp;P1;durP1;ratioP1;P2;durP2;ratioP2
46875;SDS011;32866;50.160;14.768;2023-10-08T13:33:30;0.77;;;0.77;;
46875;SDS011;32866;50.160;14.768;2023-10-08T13:35:56;1.60;;;1.02;;
46875;SDS011;32866;50.160;14.768;2023-10-08T13:40:49;0.80;;;0.80;;
46875;SDS011;32866;50.160;14.768;2023-10-08T13:43:33;1.25;;;1.15;;
46875;SDS011;32866;50.160;14.768;2023-10-08T13:46:03;0.93;;;0.93;;
46875;SDS011;32866;50.160;14.768;2023-10-08T13:48:32;0.70;;;0.70;;
46875;SDS011;32866;50.160;14.768;2023-10-08T13:50:59;0.85;;;0.85;;
46875;SDS011;32866;50.160;14.768;2023-10-08T13:53:26;1.00;;;1.00;;
46875;SDS011;32866;50.160;14.768;2023-10-08T13:56:02;0.70;;;0.70;;
46875;SDS011;32866;50.160;14.768;2023-10-08T13:58:30;0.95;;;0.90;;
46875;SDS011;32866;50.160;14.768;2023-10-08T14:00:57;0.85;;;0.82;;
46875;SDS011;32866;50.160;14.768;2023-10-08T14:03:28;0.70;;;0.70;;
46875;SDS011;32866;50.160;14.768;2023-10-08T14:05:59;0.98;;;0.98;;
46875;SDS011;32866;50.160;14.768;2023-10-08T14:08:30;3.60;;;1.13;;
46875;SDS011;32866;50.160;14.768;2023-10-08T14:10:57;0.70;;;0.70;;
46875;SDS011;32866;50.160;14.768;2023-10-08T14:13:29;0.85;;;0.82;;
46875;SDS011;32866;50.160;14.768;2023-10-08T14:16:03;1.10;;;1.10;;
46875;SDS011;32866;50.160;14.768;2023-10-08T14:18:34;1.13;;;1.13;;
46875;SDS011;32866;50.160;14.768;2023-10-08T14:21:15;0.77;;;0.77;;
46875;SDS011;32866;50.160;14.768;2023-10-08T14:23:43;1.00;;;1.00;;
46875;SDS011;32866;50.160;14.768;2023-10-08T14:26:10;0.90;;;0.90;;
46875;SDS011;32866;50.160;14.768;2023-10-08T14:28:36;2.13;;;1.65;;
46875;SDS011;32866;50.160;14.768;2023-10-08T14:31:07;1.27;;;1.27;;
46875;SDS011;32866;50.160;14.768;2023-10-08T14:33:33;1.00;;;1.00;;
46875;SDS011;32866;50.160;14.768;2023-10-08T14:36:08;1.08;;;1.08;;
46875;SDS011;32866;50.160;14.768;2023-10-08T14:38:53;1.10;;;1.00;;
46875;SDS011;32866;50.160;14.768;2023-10-08T14:41:38;1.58;;;0.98;;
46875;SDS011;32866;50.160;14.768;2023-10-08T14:44:22;0.70;;;0.70;;
46875;SDS011;32866;50.160;14.768;2023-10-08T14:49:16;1.33;;;1.30;;
46875;SDS011;32866;50.160;14.768;2023-10-08T14:51:42;0.80;;;0.80;;
46875;SDS011;32866;50.160;14.768;2023-10-08T14:56:35;1.35;;;1.10;;
46875;SDS011;32866;50.160;14.768;2023-10-08T14:59:02;1.15;;;1.15;;
46875;SDS011;32866;50.160;14.768;2023-10-08T15:01:29;0.68;;;0.68;;
46875;SDS011;32866;50.160;14.768;2023-10-08T15:03:59;1.02;;;1.02;;
46875;SDS011;32866;50.160;14.768;2023-10-08T15:06:32;0.80;;;0.80;;
46875;SDS011;32866;50.160;14.768;2023-10-08T15:08:58;0.80;;;0.80;;
46875;SDS011;32866;50.160;14.768;2023-10-08T15:11:25;1.27;;;1.27;;
46875;SDS011;32866;50.160;14.768;2023-10-08T15:13:52;1.00;;;1.00;;
46875;SDS011;32866;50.160;14.768;2023-10-08T15:16:19;1.05;;;1.02;;
46875;SDS011;32866;50.160;14.768;2023-10-08T15:18:49;1.35;;;1.25;;
46875;SDS011;32866;50.160;14.768;2023-10-08T15:21:17;0.70;;;0.70;;
46875;SDS011;32866;50.160;14.768;2023-10-08T15:23:43;0.77;;;0.77;;
46875;SDS011;32866;50.160;14.768;2023-10-08T15:26:11;0.70;;;0.70;;
46875;SDS011;32866;50.160;14.768;2023-10-08T15:28:38;0.77;;;0.77;;
46875;SDS011;32866;50.160;14.768;2023-10-08T15:31:05;1.38;;;1.38;;
46875;SDS011;32866;50.160;14.768;2023-10-08T15:33:32;1.08;;;1.05;;
46875;SDS011;32866;50.160;14.768;2023-10-08T15:35:58;0.80;;;0.80;;
46875;SDS011;32866;50.160;14.768;2023-10-08T15:38:25;1.33;;;1.23;;
46875;SDS011;32866;50.160;14.768;2023-10-08T15:40:51;0.90;;;0.90;;
46875;SDS011;32866;50.160;14.768;2023-10-08T15:43:20;0.80;;;0.80;;
46875;SDS011;32866;50.160;14.768;2023-10-08T15:45:46;1.23;;;1.23;;
46875;SDS011;32866;50.160;14.768;2023-10-08T15:48:12;0.90;;;0.90;;
46875;SDS011;32866;50.160;14.768;2023-10-08T15:50:38;0.95;;;0.95;;
46875;SDS011;32866;50.160;14.768;2023-10-08T15:53:05;1.40;;;1.30;;
46875;SDS011;32866;50.160;14.768;2023-10-08T15:55:31;0.88;;;0.88;;
46875;SDS011;32866;50.160;14.768;2023-10-08T15:57:57;0.90;;;0.90;;
46875;SDS011;32866;50.160;14.768;2023-10-08T16:00:23;1.30;;;1.17;;
46875;SDS011;32866;50.160;14.768;2023-10-08T16:02:49;0.80;;;0.80;;
46875;SDS011;32866;50.160;14.768;2023-10-08T16:05:15;1.15;;;1.15;;
46875;SDS011;32866;50.160;14.768;2023-10-08T16:07:42;4.28;;;1.00;;
46875;SDS011;32866;50.160;14.768;2023-10-08T16:10:08;0.95;;;0.95;;
46875;SDS011;32866;50.160;14.768;2023-10-08T16:12:35;1.25;;;1.25;;
46875;SDS011;32866;50.160;14.768;2023-10-08T16:15:02;1.10;;;1.10;;
46875;SDS011;32866;50.160;14.768;2023-10-08T16:17:29;1.67;;;1.40;;
46875;SDS011;32866;50.160;14.768;2023-10-08T16:19:56;0.82;;;0.82;;
46875;SDS011;32866;50.160;14.768;2023-10-08T16:22:23;1.25;;;1.25;;
46875;SDS011;32866;50.160;14.768;2023-10-08T16:24:49;0.80;;;0.80;;
46875;SDS011;32866;50.160;14.768;2023-10-08T16:27:15;0.90;;;0.90;;
46875;SDS011;32866;50.160;14.768;2023-10-08T16:29:41;1.10;;;1.10;;
46875;SDS011;32866;50.160;14.768;2023-10-08T16:34:33;1.00;;;1.00;;
46875;SDS011;32866;50.160;14.768;2023-10-08T16:37:02;1.00;;;1.00;;
46875;SDS011;32866;50.160;14.768;2023-10-08T16:39:29;1.23;;;1.23;;
46875;SDS011;32866;50.160;14.768;2023-10-08T16:41:56;0.95;;;0.95;;
46875;SDS011;32866;50.160;14.768;2023-10-08T16:44:22;6.10;;;1.35;;
46875;SDS011;32866;50.160;14.768;2023-10-08T16:46:49;0.90;;;0.90;;
46875;SDS011;32866;50.160;14.768;2023-10-08T16:49:16;0.98;;;0.98;;
46875;SDS011;32866;50.160;14.768;2023-10-08T16:51:43;1.30;;;1.30;;
46875;SDS011;32866;50.160;14.768;2023-10-08T16:54:09;3.53;;;2.30;;
46875;SDS011;32866;50.160;14.768;2023-10-08T16:56:41;1.93;;;1.83;;
46875;SDS011;32866;50.160;14.768;2023-10-08T16:59:07;1.48;;;1.48;;
46875;SDS011;32866;50.160;14.768;2023-10-08T17:01:36;1.10;;;1.10;;
46875;SDS011;32866;50.160;14.768;2023-10-08T17:04:04;1.00;;;1.00;;
46875;SDS011;32866;50.160;14.768;2023-10-08T17:06:31;1.30;;;1.30;;
46875;SDS011;32866;50.160;14.768;2023-10-08T17:08:57;1.27;;;1.27;;
46875;SDS011;32866;50.160;14.768;2023-10-08T17:11:23;1.10;;;1.10;;
46875;SDS011;32866;50.160;14.768;2023-10-08T17:13:52;1.63;;;1.63;;
46875;SDS011;32866;50.160;14.768;2023-10-08T17:16:19;2.50;;;1.87;;
46875;SDS011;32866;50.160;14.768;2023-10-08T17:18:45;1.20;;;1.20;;
46875;SDS011;32866;50.160;14.768;2023-10-08T17:21:11;4.28;;;2.10;;
46875;SDS011;32866;50.160;14.768;2023-10-08T17:23:39;1.83;;;1.80;;
46875;SDS011;32866;50.160;14.768;2023-10-08T17:26:05;3.22;;;2.90;;
46875;SDS011;32866;50.160;14.768;2023-10-08T17:28:31;2.95;;;2.60;;
46875;SDS011;32866;50.160;14.768;2023-10-08T17:30:57;1.80;;;1.70;;
46875;SDS011;32866;50.160;14.768;2023-10-08T17:36:00;1.90;;;1.80;;
46875;SDS011;32866;50.160;14.768;2023-10-08T17:38:26;2.25;;;2.15;;
46875;SDS011;32866;50.160;14.768;2023-10-08T17:40:52;1.88;;;1.83;;
46875;SDS011;32866;50.160;14.768;2023-10-08T17:43:19;1.70;;;1.60;;
46875;SDS011;32866;50.160;14.768;2023-10-08T17:48:11;1.40;;;1.40;;
46875;SDS011;32866;50.160;14.768;2023-10-08T17:50:37;1.95;;;1.85;;
46875;SDS011;32866;50.160;14.768;2023-10-08T17:53:04;4.40;;;2.23;;
46875;SDS011;32866;50.160;14.768;2023-10-08T17:55:33;2.57;;;2.43;;
46875;SDS011;32866;50.160;14.768;2023-10-08T17:57:59;1.75;;;1.75;;
46875;SDS011;32866;50.160;14.768;2023-10-08T18:00:26;1.63;;;1.63;;
46875;SDS011;32866;50.160;14.768;2023-10-08T18:02:53;1.50;;;1.50;;
46875;SDS011;32866;50.160;14.768;2023-10-08T18:05:19;2.05;;;1.95;;
46875;SDS011;32866;50.160;14.768;2023-10-08T18:07:47;2.27;;;2.17;;
46875;SDS011;32866;50.160;14.768;2023-10-08T18:10:15;2.30;;;2.17;;
46875;SDS011;32866;50.160;14.768;2023-10-08T18:12:42;1.20;;;1.20;;
46875;SDS011;32866;50.160;14.768;2023-10-08T18:15:09;2.47;;;2.37;;
46875;SDS011;32866;50.160;14.768;2023-10-08T18:17:41;1.77;;;1.77;;
46875;SDS011;32866;50.160;14.768;2023-10-08T18:20:09;1.90;;;1.80;;
46875;SDS011;32866;50.160;14.768;2023-10-08T18:22:40;1.73;;;1.73;;
46875;SDS011;32866;50.160;14.768;2023-10-08T18:25:07;1.87;;;1.87;;
46875;SDS011;32866;50.160;14.768;2023-10-08T18:27:36;2.60;;;2.40;;
46875;SDS011;32866;50.160;14.768;2023-10-08T18:30:04;2.77;;;2.57;;
46875;SDS011;32866;50.160;14.768;2023-10-08T18:32:34;1.40;;;1.40;;
46875;SDS011;32866;50.160;14.768;2023-10-08T18:35:02;1.80;;;1.80;;
46875;SDS011;32866;50.160;14.768;2023-10-08T18:37:29;1.50;;;1.50;;
46875;SDS011;32866;50.160;14.768;2023-10-08T18:39:55;1.80;;;1.70;;
46875;SDS011;32866;50.160;14.768;2023-10-08T18:42:21;1.83;;;1.83;;
46875;SDS011;32866;50.160;14.768;2023-10-08T18:44:53;2.00;;;1.90;;
46875;SDS011;32866;50.160;14.768;2023-10-08T18:47:24;1.70;;;1.70;;
46875;SDS011;32866;50.160;14.768;2023-10-08T18:49:53;1.90;;;1.80;;
46875;SDS011;32866;50.160;14.768;2023-10-08T18:52:20;2.30;;;2.20;;
46875;SDS011;32866;50.160;14.768;2023-10-08T18:54:46;1.50;;;1.50;;
46875;SDS011;32866;50.160;14.768;2023-10-08T18:57:16;2.90;;;2.67;;
46875;SDS011;32866;50.160;14.768;2023-10-08T18:59:43;1.87;;;1.87;;
46875;SDS011;32866;50.160;14.768;2023-10-08T19:02:10;2.53;;;2.33;;
46875;SDS011;32866;50.160;14.768;2023-10-08T19:07:02;2.08;;;2.03;;
46875;SDS011;32866;50.160;14.768;2023-10-08T19:09:30;2.77;;;2.67;;
46875;SDS011;32866;50.160;14.768;2023-10-08T19:11:56;2.90;;;2.70;;
46875;SDS011;32866;50.160;14.768;2023-10-08T19:14:22;3.13;;;2.97;;
46875;SDS011;32866;50.160;14.768;2023-10-08T19:19:15;3.03;;;2.92;;
46875;SDS011;32866;50.160;14.768;2023-10-08T19:21:42;6.80;;;6.40;;
46875;SDS011;32866;50.160;14.768;2023-10-08T19:24:08;5.10;;;4.90;;
46875;SDS011;32866;50.160;14.768;2023-10-08T19:26:34;6.10;;;5.70;;
46875;SDS011;32866;50.160;14.768;2023-10-08T19:29:02;4.80;;;4.60;;
46875;SDS011;32866;50.160;14.768;2023-10-08T19:31:28;4.82;;;4.63;;
46875;SDS011;32866;50.160;14.768;2023-10-08T19:33:57;5.87;;;5.67;;
46875;SDS011;32866;50.160;14.768;2023-10-08T19:36:23;5.75;;;5.53;;
46875;SDS011;32866;50.160;14.768;2023-10-08T19:41:16;6.03;;;5.68;;
46875;SDS011;32866;50.160;14.768;2023-10-08T19:43:43;8.77;;;8.40;;
46875;SDS011;32866;50.160;14.768;2023-10-08T19:46:12;9.38;;;9.00;;
46875;SDS011;32866;50.160;14.768;2023-10-08T19:48:40;10.00;;;9.50;;
46875;SDS011;32866;50.160;14.768;2023-10-08T19:51:10;8.97;;;8.57;;
46875;SDS011;32866;50.160;14.768;2023-10-08T19:53:38;8.43;;;7.70;;
46875;SDS011;32866;50.160;14.768;2023-10-08T19:56:05;7.73;;;7.43;;
46875;SDS011;32866;50.160;14.768;2023-10-08T19:58:37;9.27;;;8.87;;
46875;SDS011;32866;50.160;14.768;2023-10-08T20:01:04;7.90;;;7.60;;
46875;SDS011;32866;50.160;14.768;2023-10-08T20:03:30;8.02;;;7.72;;
46875;SDS011;32866;50.160;14.768;2023-10-08T20:08:22;3.40;;;3.30;;
46875;SDS011;32866;50.160;14.768;2023-10-08T20:13:15;2.73;;;2.63;;
46875;SDS011;32866;50.160;14.768;2023-10-08T20:15:41;2.80;;;2.70;;
46875;SDS011;32866;50.160;14.768;2023-10-08T20:18:08;3.33;;;3.13;;
46875;SDS011;32866;50.160;14.768;2023-10-08T20:20:39;3.53;;;3.33;;
46875;SDS011;32866;50.160;14.768;2023-10-08T20:23:05;2.37;;;2.27;;
46875;SDS011;32866;50.160;14.768;2023-10-08T20:25:37;3.07;;;2.77;;
46875;SDS011;32866;50.160;14.768;2023-10-08T20:28:07;3.43;;;3.33;;
46875;SDS011;32866;50.160;14.768;2023-10-08T20:30:35;3.83;;;3.63;;
46875;SDS011;32866;50.160;14.768;2023-10-08T20:33:02;3.33;;;3.23;;
46875;SDS011;32866;50.160;14.768;2023-10-08T20:35:32;4.70;;;4.30;;
46875;SDS011;32866;50.160;14.768;2023-10-08T20:37:59;7.53;;;3.63;;
46875;SDS011;32866;50.160;14.768;2023-10-08T20:40:25;3.90;;;3.70;;
46875;SDS011;32866;50.160;14.768;2023-10-08T20:42:54;3.70;;;3.20;;
46875;SDS011;32866;50.160;14.768;2023-10-08T20:45:21;2.67;;;2.57;;
46875;SDS011;32866;50.160;14.768;2023-10-08T20:47:56;2.93;;;2.83;;
46875;SDS011;32866;50.160;14.768;2023-10-08T20:50:24;2.50;;;2.40;;
46875;SDS011;32866;50.160;14.768;2023-10-08T20:52:51;3.17;;;3.07;;
46875;SDS011;32866;50.160;14.768;2023-10-08T20:57:51;3.47;;;3.37;;
46875;SDS011;32866;50.160;14.768;2023-10-08T21:00:19;2.77;;;2.67;;
46875;SDS011;32866;50.160;14.768;2023-10-08T21:02:47;3.40;;;3.20;;
46875;SDS011;32866;50.160;14.768;2023-10-08T21:05:14;2.93;;;2.83;;
46875;SDS011;32866;50.160;14.768;2023-10-08T21:07:41;2.77;;;2.67;;
46875;SDS011;32866;50.160;14.768;2023-10-08T21:10:13;3.10;;;3.00;;
46875;SDS011;32866;50.160;14.768;2023-10-08T21:12:40;4.40;;;4.10;;
46875;SDS011;32866;50.160;14.768;2023-10-08T21:15:07;2.70;;;2.60;;
46875;SDS011;32866;50.160;14.768;2023-10-08T21:17:36;2.90;;;2.80;;
46875;SDS011;32866;50.160;14.768;2023-10-08T21:20:06;2.80;;;2.70;;
46875;SDS011;32866;50.160;14.768;2023-10-08T21:22:36;3.13;;;2.97;;
46875;SDS011;32866;50.160;14.768;2023-10-08T21:25:04;2.37;;;2.27;;
46875;SDS011;32866;50.160;14.768;2023-10-08T21:27:36;3.00;;;2.90;;
46875;SDS011;32866;50.160;14.768;2023-10-08T21:30:04;2.37;;;2.27;;
46875;SDS011;32866;50.160;14.768;2023-10-08T21:32:37;3.43;;;2.57;;
46875;SDS011;32866;50.160;14.768;2023-10-08T21:35:07;1.93;;;1.90;;
46875;SDS011;32866;50.160;14.768;2023-10-08T21:37:35;3.27;;;3.07;;
46875;SDS011;32866;50.160;14.768;2023-10-08T21:40:02;2.20;;;2.10;;
46875;SDS011;32866;50.160;14.768;2023-10-08T21:42:36;2.27;;;2.17;;
46875;SDS011;32866;50.160;14.768;2023-10-08T21:45:05;3.80;;;2.43;;
46875;SDS011;32866;50.160;14.768;2023-10-08T21:47:32;8.80;;;2.37;;
46875;SDS011;32866;50.160;14.768;2023-10-08T21:49:58;2.73;;;2.63;;
46875;SDS011;32866;50.160;14.768;2023-10-08T21:52:25;2.72;;;2.63;;
46875;SDS011;32866;50.160;14.768;2023-10-08T21:54:51;6.30;;;2.97;;
46875;SDS011;32866;50.160;14.768;2023-10-08T21:57:18;2.73;;;2.33;;
46875;SDS011;32866;50.160;14.768;2023-10-08T21:59:44;2.97;;;2.78;;
46875;SDS011;32866;50.160;14.768;2023-10-08T22:02:10;2.20;;;2.10;;
46875;SDS011;32866;50.160;14.768;2023-10-08T22:04:37;2.47;;;2.37;;
46875;SDS011;32866;50.160;14.768;2023-10-08T22:07:03;2.63;;;2.53;;
46875;SDS011;32866;50.160;14.768;2023-10-08T22:09:31;3.20;;;3.10;;
46875;SDS011;32866;50.160;14.768;2023-10-08T22:11:59;2.80;;;2.70;;
46875;SDS011;32866;50.160;14.768;2023-10-08T22:14:29;2.60;;;2.50;;
46875;SDS011;32866;50.160;14.768;2023-10-08T22:17:01;2.87;;;2.77;;
46875;SDS011;32866;50.160;14.768;2023-10-08T22:19:31;2.60;;;2.50;;
46875;SDS011;32866;50.160;14.768;2023-10-08T22:22:09;2.88;;;2.78;;
46875;SDS011;32866;50.160;14.768;2023-10-08T22:24:38;2.23;;;2.13;;
46875;SDS011;32866;50.160;14.768;2023-10-08T22:27:08;2.23;;;2.13;;
46875;SDS011;32866;50.160;14.768;2023-10-08T22:29:53;2.83;;;2.73;;
46875;SDS011;32866;50.160;14.768;2023-10-08T22:32:21;2.50;;;2.40;;
46875;SDS011;32866;50.160;14.768;2023-10-08T22:34:47;2.77;;;2.67;;
46875;SDS011;32866;50.160;14.768;2023-10-08T22:37:21;3.37;;;3.17;;
46875;SDS011;32866;50.160;14.768;2023-10-08T22:39:58;2.57;;;2.47;;
46875;SDS011;32866;50.160;14.768;2023-10-08T22:42:25;2.20;;;2.10;;
46875;SDS011;32866;50.160;14.768;2023-10-08T22:44:51;3.00;;;2.90;;
46875;SDS011;32866;50.160;14.768;2023-10-08T22:47:21;2.40;;;2.30;;
46875;SDS011;32866;50.160;14.768;2023-10-08T22:49:53;2.70;;;2.57;;
46875;SDS011;32866;50.160;14.768;2023-10-08T22:52:21;2.53;;;2.43;;
46875;SDS011;32866;50.160;14.768;2023-10-08T22:54:47;2.73;;;2.63;;
46875;SDS011;32866;50.160;14.768;2023-10-08T22:57:14;2.53;;;2.43;;
46875;SDS011;32866;50.160;14.768;2023-10-08T23:02:07;2.47;;;2.37;;
46875;SDS011;32866;50.160;14.768;2023-10-08T23:04:36;2.97;;;2.80;;
46875;SDS011;32866;50.160;14.768;2023-10-08T23:07:02;3.20;;;3.00;;
46875;SDS011;32866;50.160;14.768;2023-10-08T23:09:29;2.43;;;2.33;;
46875;SDS011;32866;50.160;14.768;2023-10-08T23:11:57;2.50;;;2.40;;
46875;SDS011;32866;50.160;14.768;2023-10-08T23:14:26;2.80;;;2.70;;
46875;SDS011;32866;50.160;14.768;2023-10-08T23:16:53;3.60;;;3.40;;
46875;SDS011;32866;50.160;14.768;2023-10-08T23:19:22;2.70;;;2.60;;
46875;SDS011;32866;50.160;14.768;2023-10-08T23:21:49;3.30;;;3.10;;
46875;SDS011;32866;50.160;14.768;2023-10-08T23:24:17;2.87;;;2.77;;
46875;SDS011;32866;50.160;14.768;2023-10-08T23:26:44;3.53;;;3.33;;
46875;SDS011;32866;50.160;14.768;2023-10-08T23:29:10;3.40;;;3.10;;
46875;SDS011;32866;50.160;14.768;2023-10-08T23:31:37;2.75;;;2.65;;
46875;SDS011;32866;50.160;14.768;2023-10-08T23:34:09;3.17;;;3.07;;
46875;SDS011;32866;50.160;14.768;2023-10-08T23:36:39;2.77;;;2.67;;
46875;SDS011;32866;50.160;14.768;2023-10-08T23:39:08;3.17;;;3.08;;
46875;SDS011;32866;50.160;14.768;2023-10-08T23:41:37;3.33;;;3.13;;
46875;SDS011;32866;50.160;14.768;2023-10-08T23:44:18;2.77;;;2.67;;
46875;SDS011;32866;50.160;14.768;2023-10-08T23:46:52;2.90;;;2.80;;
46875;SDS011;32866;50.160;14.768;2023-10-08T23:49:29;2.83;;;2.73;;
46875;SDS011;32866;50.160;14.768;2023-10-08T23:51:56;4.53;;;3.13;;
46875;SDS011;32866;50.160;14.768;2023-10-08T23:54:26;3.10;;;3.00;;
46875;SDS011;32866;50.160;14.768;2023-10-08T23:56:59;3.47;;;3.17;;
46875;SDS011;32866;50.160;14.768;2023-10-08T23:59:26;3.67;;;3.53;;
